Terminal Aerodrome Forecast
Issued by NWS

Current Version | Previous Version | Text Only | Print | Product List | Glossary On
Versions: 1 2 3 4 5 6 7 8 9 10 11 12 13 14 15 16 17 18 19 20 21 22 23 24 25 26 27 28 29 30 31
000 FTUS41 KOKX 251700 TAFHPN TAF KHPN 251734Z 2518/2618 29012G17KT P6SM SCT050 FM252300 25008KT P6SM BKN050 FM260900 29010G17KT P6SM SCT050 FM261500 30015G26KT P6SM SCT050 AMD NOT SKED=

USA.gov is the U.S. government's official web portal to all federal, state and local government web resources and services.